Time;durP1;ratioP1;P1;durP2;ratioP2;P2;SDS_P1;SDS_P2;PMS_P1;PMS_P2;Temp;Humidity;BMP_temperature;BMP_pressure;BME280_temperature;BME280_humidity;BME280_pressure;Samples;Min_cycle;Max_cycle;Signal;HPM_P1;HPM_P2
2023/01/22 00:00:37;;;;;;;20.38;9.60;;;;;;;2.22;59.70;103260.50;4962127;28;120019;-69
2023/01/22 00:03:04;;;;;;;21.75;9.73;;;;;;;2.19;59.68;103259.56;4961544;28;124733;-69
2023/01/22 00:05:31;;;;;;;20.27;9.15;;;;;;;2.16;59.50;103269.91;4961345;28;123913;-69
2023/01/22 00:07:58;;;;;;;23.55;9.85;;;;;;;2.14;59.67;103260.28;4965929;28;119720;-69
2023/01/22 00:10:26;;;;;;;27.40;10.73;;;;;;;2.12;59.70;103268.94;4965723;28;118137;-69
2023/01/22 00:12:53;;;;;;;22.88;10.13;;;;;;;2.11;59.72;103273.28;4967503;28;124292;-68
2023/01/22 00:15:20;;;;;;;20.90;9.25;;;;;;;2.10;59.62;103268.00;4966598;28;123270;-68
2023/01/22 00:17:47;;;;;;;20.17;9.60;;;;;;;2.08;59.74;103262.72;4963970;28;119555;-68
2023/01/22 00:20:14;;;;;;;20.75;9.02;;;;;;;2.08;59.76;103264.47;4965168;28;119957;-68
2023/01/22 00:22:42;;;;;;;23.88;9.63;;;;;;;2.07;59.69;103260.97;4966014;28;123971;-68
2023/01/22 00:25:11;;;;;;;21.88;10.20;;;;;;;2.07;59.74;103260.97;4964476;28;124668;-68
2023/01/22 00:27:39;;;;;;;21.45;9.23;;;;;;;2.07;59.78;103271.44;4981777;28;118631;-68
2023/01/22 00:30:07;;;;;;;23.42;9.60;;;;;;;2.07;59.65;103266.19;4962015;28;119038;-68
2023/01/22 00:32:34;;;;;;;19.90;9.20;;;;;;;2.06;59.72;103269.63;4964987;28;123843;-68
2023/01/22 00:35:01;;;;;;;20.23;9.38;;;;;;;2.03;59.76;103259.06;4964327;28;124245;-69
2023/01/22 00:37:28;;;;;;;20.05;9.80;;;;;;;2.01;59.81;103263.38;4963209;28;119171;-69
2023/01/22 00:39:55;;;;;;;20.50;9.15;;;;;;;1.99;59.86;103262.44;4965402;28;119109;-69
2023/01/22 00:42:22;;;;;;;23.13;9.73;;;;;;;1.99;59.60;103257.22;4963956;28;123595;-69
2023/01/22 00:44:49;;;;;;;20.40;8.98;;;;;;;1.97;59.78;103256.28;4962572;28;122958;-68
2023/01/22 00:47:16;;;;;;;22.80;9.35;;;;;;;1.97;59.80;103253.69;4966184;28;120117;-69
2023/01/22 00:49:43;;;;;;;20.02;9.23;;;;;;;1.97;59.83;103247.56;4974147;28;119661;-68
2023/01/22 00:52:10;;;;;;;19.60;9.50;;;;;;;1.97;60.03;103248.44;4963861;28;124861;-69
2023/01/22 00:54:37;;;;;;;17.52;8.27;;;;;;;1.97;59.91;103248.44;4967195;28;124088;-68
2023/01/22 00:57:04;;;;;;;21.33;9.63;;;;;;;1.99;59.98;103246.78;4963356;28;118086;-68
2023/01/22 00:59:32;;;;;;;20.13;9.30;;;;;;;2.00;59.88;103243.34;4963765;28;121819;-68
2023/01/22 01:01:59;;;;;;;22.77;10.27;;;;;;;2.00;59.74;103231.97;4960830;28;123290;-69
2023/01/22 01:04:26;;;;;;;20.38;9.07;;;;;;;2.01;60.01;103244.19;4962491;28;123571;-69
2023/01/22 01:06:54;;;;;;;21.75;9.80;;;;;;;2.00;59.85;103238.09;4963055;28;120006;-69
2023/01/22 01:09:21;;;;;;;19.65;9.48;;;;;;;2.01;59.92;103239.84;4964383;28;120002;-69
2023/01/22 01:11:48;;;;;;;20.25;9.48;;;;;;;2.01;59.92;103237.25;4949195;28;124079;-68
2023/01/22 01:14:16;;;;;;;20.45;9.88;;;;;;;2.02;59.96;103231.19;4966969;28;125734;-69
2023/01/22 01:16:43;;;;;;;20.98;9.27;;;;;;;2.04;59.96;103234.72;4962861;28;117554;-69
2023/01/22 01:19:11;;;;;;;23.33;9.85;;;;;;;2.04;60.14;103234.72;4965784;28;118816;-69
2023/01/22 01:21:38;;;;;;;17.35;9.35;;;;;;;2.06;60.25;103233.03;4959935;28;123454;-69
2023/01/22 01:24:05;;;;;;;21.98;9.35;;;;;;;2.09;60.19;103233.16;4964894;28;123780;-69
2023/01/22 01:26:34;;;;;;;22.20;10.20;;;;;;;2.11;60.34;103236.69;4964551;28;119351;-69
2023/01/22 01:29:03;;;;;;;18.63;9.25;;;;;;;2.15;60.22;103227.19;4965579;28;119156;-69
2023/01/22 01:31:30;;;;;;;19.92;9.35;;;;;;;2.18;60.17;103226.41;4965164;28;124893;-69
2023/01/22 01:33:58;;;;;;;19.10;9.40;;;;;;;2.21;60.31;103226.50;4960562;28;123032;-68
2023/01/22 01:36:25;;;;;;;22.25;9.90;;;;;;;2.21;60.07;103247.41;4964073;28;120542;-69
2023/01/22 01:39:12;;;;;;;21.00;9.48;;;;;;;2.23;60.06;103243.09;4964146;28;119563;-68
2023/01/22 01:41:39;;;;;;;19.35;9.50;;;;;;;2.23;60.06;103237.88;4963956;28;124576;-68
2023/01/22 01:44:18;;;;;;;20.45;9.63;;;;;;;2.23;60.15;103230.03;4964882;28;122111;-69
2023/01/22 01:46:48;;;;;;;19.85;8.82;;;;;;;2.25;60.27;103223.13;4958666;28;119387;-69
2023/01/22 01:49:27;;;;;;;23.02;10.05;;;;;;;2.26;60.25;103219.63;4971974;28;118412;-68
2023/01/22 01:51:59;;;;;;;20.63;9.98;;;;;;;2.27;60.20;103216.19;4957755;28;122860;-69
2023/01/22 01:54:27;;;;;;;17.30;8.90;;;;;;;2.28;60.04;103207.50;4958032;28;123930;-69
2023/01/22 01:57:08;;;;;;;22.60;9.60;;;;;;;2.30;60.19;103205.84;4939549;28;118862;-68
2023/01/22 01:59:36;;;;;;;20.48;9.27;;;;;;;2.32;60.56;103204.16;4969003;28;118178;-69
2023/01/22 02:02:03;;;;;;;21.77;9.85;;;;;;;2.35;60.34;103214.66;4956811;28;123715;-69
2023/01/22 02:04:30;;;;;;;18.30;9.15;;;;;;;2.36;60.33;103211.22;4958805;28;124513;-69
2023/01/22 02:06:57;;;;;;;21.08;9.05;;;;;;;2.39;60.42;103206.06;4956037;28;119034;-69
2023/01/22 02:09:26;;;;;;;19.40;9.57;;;;;;;2.43;60.54;103207.94;4957863;28;119408;-69
2023/01/22 02:11:53;;;;;;;18.05;9.10;;;;;;;2.46;60.29;103202.75;4957744;28;125091;-69
2023/01/22 02:14:25;;;;;;;17.55;8.82;;;;;;;2.50;60.37;103191.53;4959754;28;123109;-68
2023/01/22 02:17:14;;;;;;;18.40;8.75;;;;;;;2.53;60.49;103188.13;4956424;28;119641;-69
2023/01/22 02:19:42;;;;;;;17.40;9.32;;;;;;;2.56;60.40;103187.31;4953665;28;118991;-68
2023/01/22 02:22:20;;;;;;;21.55;9.68;;;;;;;2.57;60.57;103179.50;4962017;28;123824;-68
2023/01/22 02:24:48;;;;;;;17.92;8.75;;;;;;;2.57;60.33;103189.97;4961052;28;123987;-68
2023/01/22 02:27:16;;;;;;;17.33;8.48;;;;;;;2.60;60.13;103195.31;4960491;28;120214;-68
2023/01/22 02:29:45;;;;;;;20.90;9.38;;;;;;;2.63;60.36;103191.88;4947612;28;118763;-69
2023/01/22 02:32:12;;;;;;;17.92;8.90;;;;;;;2.66;60.50;103184.13;4956941;28;123880;-68
2023/01/22 02:34:40;;;;;;;18.83;9.27;;;;;;;2.68;60.51;103188.53;4960122;28;123035;-68
2023/01/22 02:37:09;;;;;;;17.40;8.48;;;;;;;2.71;60.24;103187.72;4958046;28;118918;-69
2023/01/22 02:39:36;;;;;;;18.88;9.13;;;;;;;2.73;60.37;103196.47;4962584;28;120027;-68
2023/01/22 02:42:07;;;;;;;17.02;9.05;;;;;;;2.72;60.29;103206.06;4962236;28;123345;-69
2023/01/22 02:44:35;;;;;;;16.35;8.80;;;;;;;2.73;60.43;103204.31;4957144;28;123579;-68
2023/01/22 02:47:03;;;;;;;18.10;8.55;;;;;;;2.75;60.35;103200.06;4964356;28;119275;-69
2023/01/22 02:49:31;;;;;;;15.98;8.45;;;;;;;2.77;60.34;103193.13;4959599;28;118175;-69
2023/01/22 02:52:00;;;;;;;17.52;8.32;;;;;;;2.76;60.12;103191.34;4960175;28;123584;-68
2023/01/22 02:54:28;;;;;;;15.70;7.88;;;;;;;2.75;60.11;103189.59;4961752;28;123506;-68
2023/01/22 02:56:55;;;;;;;15.32;7.85;;;;;;;2.73;60.27;103193.88;4960879;28;118662;-69
2023/01/22 02:59:22;;;;;;;17.05;8.43;;;;;;;2.72;60.11;103199.97;4963001;28;118074;-69
2023/01/22 03:01:50;;;;;;;16.98;8.38;;;;;;;2.71;60.37;103198.19;4959668;28;122666;-69
2023/01/22 03:04:17;;;;;;;15.60;8.13;;;;;;;2.70;60.24;103201.66;4960531;28;123093;-69
2023/01/22 03:06:46;;;;;;;16.65;8.32;;;;;;;2.70;60.19;103199.91;4958722;28;118690;-69
2023/01/22 03:09:16;;;;;;;18.23;8.80;;;;;;;2.70;60.23;103196.41;4962774;28;118628;-68
2023/01/22 03:11:45;;;;;;;16.85;8.48;;;;;;;2.72;60.33;103190.38;4962978;28;123756;-69
2023/01/22 03:22:37;;;;;;;15.73;7.90;;;;;;;2.79;60.41;103175.72;4962409;28;125020;-69
2023/01/22 03:25:04;;;;;;;15.70;8.25;;;;;;;2.80;60.25;103182.72;4961597;28;123557;-69
2023/01/22 03:27:32;;;;;;;14.15;7.85;;;;;;;2.82;60.36;103170.53;4963318;28;118877;-69
2023/01/22 03:29:59;;;;;;;15.50;8.10;;;;;;;2.85;60.49;103165.41;4962738;28;118297;-68
2023/01/22 03:32:31;;;;;;;16.17;8.27;;;;;;;2.89;60.33;103175.09;4963947;28;123757;-69
2023/01/22 03:35:00;;;;;;;17.77;8.73;;;;;;;2.91;60.45;103170.78;4961928;28;123204;-67
2023/01/22 03:37:38;;;;;;;19.77;8.98;;;;;;;2.95;60.21;103165.63;4957635;28;118254;-68
2023/01/22 03:40:08;;;;;;;17.23;8.13;;;;;;;2.94;60.33;103164.75;4960677;28;118953;-68
2023/01/22 03:42:37;;;;;;;17.05;7.72;;;;;;;2.96;60.40;103156.91;4959495;28;123656;-68
2023/01/22 03:45:06;;;;;;;19.02;8.73;;;;;;;2.97;60.37;103158.69;4959941;28;123342;-69
2023/01/22 03:47:35;;;;;;;18.88;8.95;;;;;;;2.97;60.42;103159.56;4959896;28;119173;-69
2023/01/22 03:50:15;;;;;;;16.05;7.95;;;;;;;2.98;60.22;103152.63;4962572;28;118562;-69
2023/01/22 03:52:42;;;;;;;14.85;8.13;;;;;;;3.00;60.29;103153.53;4960180;28;124103;-68
2023/01/22 03:55:09;;;;;;;16.58;8.27;;;;;;;3.00;60.41;103153.53;4959757;28;124206;-68
2023/01/22 03:57:37;;;;;;;17.10;8.20;;;;;;;2.98;60.18;103155.25;4952203;28;118784;-68
2023/01/22 04:00:06;;;;;;;15.00;7.93;;;;;;;2.99;60.49;103151.75;4946243;28;118703;-68
2023/01/22 04:02:38;;;;;;;17.35;7.90;;;;;;;2.99;60.46;103146.53;4961304;28;124543;-68
2023/01/22 04:05:16;;;;;;;17.23;8.95;;;;;;;2.99;60.29;103157.88;4957847;28;123533;-70
2023/01/22 04:07:43;;;;;;;13.52;7.80;;;;;;;3.00;60.35;103159.66;4962438;28;119672;-68
2023/01/22 04:10:12;;;;;;;18.50;8.23;;;;;;;3.01;60.52;103155.28;4962785;28;119275;-67
2023/01/22 04:12:40;;;;;;;16.83;8.32;;;;;;;3.02;60.59;103157.06;4955502;28;123289;-68
2023/01/22 04:15:10;;;;;;;17.23;8.73;;;;;;;3.03;60.36;103158.81;4958483;28;123342;-68
2023/01/22 04:17:38;;;;;;;15.23;7.65;;;;;;;3.05;60.39;103157.13;4960310;28;118580;-68
2023/01/22 04:20:31;;;;;;;19.00;8.45;;;;;;;3.08;60.54;103158.09;4967313;28;119463;-68
2023/01/22 04:23:08;;;;;;;17.00;8.35;;;;;;;3.10;60.58;103151.16;4960042;28;123202;-68
2023/01/22 04:25:35;;;;;;;12.77;7.00;;;;;;;3.13;60.45;103158.22;4961204;28;124045;-68
2023/01/22 04:28:03;;;;;;;17.92;9.23;;;;;;;3.15;60.65;103153.91;4963385;28;118528;-68
2023/01/22 04:30:33;;;;;;;21.77;9.52;;;;;;;3.18;60.43;103153.06;4964639;28;118197;-68
2023/01/22 04:33:18;;;;;;;14.75;7.45;;;;;;;3.18;60.60;103153.94;4960459;28;123504;-68
2023/01/22 04:36:00;;;;;;;18.35;7.68;;;;;;;3.21;59.84;103148.78;4963551;28;123684;-68
2023/01/22 04:38:27;;;;;;;14.15;8.05;;;;;;;3.23;60.69;103149.72;4961928;28;118529;-68
2023/01/22 04:40:54;;;;;;;14.70;7.13;;;;;;;3.26;60.67;103157.66;4957669;28;119058;-68
2023/01/22 04:43:22;;;;;;;15.32;7.40;;;;;;;3.28;60.54;103149.81;4965105;28;124270;-68
2023/01/22 04:45:50;;;;;;;14.63;7.85;;;;;;;3.29;60.59;103147.22;4963995;28;123033;-68
2023/01/22 04:48:20;;;;;;;16.38;7.55;;;;;;;3.33;60.52;103147.28;4962613;28;118522;-68
2023/01/22 04:50:47;;;;;;;18.30;7.82;;;;;;;3.35;60.54;103156.06;4966522;28;117875;-68
2023/01/22 04:53:14;;;;;;;14.45;8.00;;;;;;;3.36;60.27;103147.38;4961204;28;123519;-68
2023/01/22 04:55:42;;;;;;;15.05;7.70;;;;;;;3.38;60.46;103150.91;4963612;28;123050;-68
2023/01/22 04:58:10;;;;;;;14.98;7.78;;;;;;;3.40;60.39;103146.59;4961744;28;120099;-68
2023/01/22 05:00:38;;;;;;;17.05;7.85;;;;;;;3.42;60.17;103137.03;4965675;28;119130;-68
2023/01/22 05:03:06;;;;;;;20.45;8.77;;;;;;;3.44;60.10;103145.78;4962699;28;123249;-68
2023/01/22 05:05:33;;;;;;;12.80;7.22;;;;;;;3.45;60.33;103144.97;4960678;28;122643;-68
2023/01/22 05:08:01;;;;;;;14.88;7.28;;;;;;;3.45;60.23;103143.22;4946006;28;118427;-68
2023/01/22 05:10:29;;;;;;;14.60;6.75;;;;;;;3.47;60.41;103135.41;4964302;28;117890;-68
2023/01/22 05:13:01;;;;;;;14.30;6.85;;;;;;;3.50;60.15;103143.31;4960443;28;124849;-68
2023/01/22 05:15:28;;;;;;;13.10;6.93;;;;;;;3.52;60.32;103149.47;4946430;28;123262;-68
2023/01/22 05:18:01;;;;;;;12.93;6.50;;;;;;;3.54;60.07;103147.75;4961651;28;118794;-68
2023/01/22 05:20:31;;;;;;;14.13;6.97;;;;;;;3.57;60.22;103146.94;4980023;28;118735;-68
2023/01/22 05:22:59;;;;;;;14.55;7.20;;;;;;;3.58;60.20;103160.09;4959700;28;123140;-68
2023/01/22 05:25:27;;;;;;;14.07;7.03;;;;;;;3.59;60.17;103159.22;4959234;28;123093;-68
2023/01/22 05:27:56;;;;;;;13.43;6.85;;;;;;;3.59;59.98;103161.84;4961897;28;118915;-68
2023/01/22 05:30:39;;;;;;;13.13;6.45;;;;;;;3.60;60.01;103161.00;4965205;28;118585;-68
2023/01/22 05:33:30;;;;;;;12.88;6.72;;;;;;;3.58;60.03;103165.34;4959957;28;124717;-68
2023/01/22 05:35:59;;;;;;;10.90;5.85;;;;;;;3.60;59.71;103161.00;4961928;28;123072;-68
2023/01/22 05:38:28;;;;;;;11.95;6.57;;;;;;;3.58;60.01;103167.94;4967328;28;118973;-68
2023/01/22 05:40:55;;;;;;;10.25;6.20;;;;;;;3.59;59.76;103167.09;4964986;28;120928;-68
2023/01/22 05:43:22;;;;;;;12.95;6.70;;;;;;;3.61;59.63;103169.75;4965906;28;124184;-68
2023/01/22 05:46:01;;;;;;;12.85;6.07;;;;;;;3.61;59.89;103170.63;4961787;28;123053;-68
2023/01/22 05:48:45;;;;;;;11.75;5.93;;;;;;;3.61;59.71;103162.75;4964569;28;119915;-68
2023/01/22 05:51:16;;;;;;;11.48;6.00;;;;;;;3.61;60.02;103168.00;4961237;28;119524;-68
2023/01/22 05:53:44;;;;;;;12.90;6.10;;;;;;;3.63;59.84;103162.78;4968789;28;123973;-68
2023/01/22 05:56:14;;;;;;;11.48;5.90;;;;;;;3.64;59.97;103175.94;4965390;28;121876;-68
2023/01/22 05:58:41;;;;;;;12.82;6.53;;;;;;;3.64;59.91;103170.69;4965880;28;119511;-68
2023/01/22 06:01:09;;;;;;;13.23;7.00;;;;;;;3.65;59.94;103177.69;4961915;28;118624;-68
2023/01/22 06:03:46;;;;;;;9.75;5.57;;;;;;;3.65;59.62;103177.69;4950267;28;123398;-68
2023/01/22 06:06:17;;;;;;;12.85;6.78;;;;;;;3.62;59.80;103172.41;4960548;28;123010;-68
2023/01/22 06:08:46;;;;;;;12.40;6.05;;;;;;;3.63;59.86;103174.16;4964500;28;119088;-68
2023/01/22 06:11:15;;;;;;;12.57;5.85;;;;;;;3.63;59.66;103171.53;4961919;28;118587;-68
2023/01/22 06:13:46;;;;;;;13.20;6.40;;;;;;;3.62;59.75;103172.41;4960506;28;124116;-68
2023/01/22 06:16:18;;;;;;;11.80;6.15;;;;;;;3.63;59.78;103168.91;4940622;28;124170;-68
2023/01/22 06:19:05;;;;;;;12.85;6.15;;;;;;;3.62;59.33;103169.78;4965370;28;118491;-68
2023/01/22 06:21:39;;;;;;;11.82;6.32;;;;;;;3.63;59.79;103171.53;4960017;28;118769;-68
2023/01/22 06:24:07;;;;;;;14.15;6.20;;;;;;;3.63;59.74;103168.91;4962449;28;123204;-68
2023/01/22 06:26:35;;;;;;;13.50;7.30;;;;;;;3.62;59.83;103172.41;4958062;28;123043;-68
2023/01/22 06:29:04;;;;;;;12.43;6.05;;;;;;;3.62;59.59;103167.16;4948204;28;118468;-68
2023/01/22 06:31:32;;;;;;;10.38;5.97;;;;;;;3.63;59.73;103168.91;4963694;28;118283;-68
2023/01/22 06:33:59;;;;;;;10.23;6.18;;;;;;;3.64;59.67;103170.69;4945435;28;123256;-68
2023/01/22 06:36:26;;;;;;;12.07;6.10;;;;;;;3.64;59.56;103170.69;4959681;28;123488;-68
2023/01/22 06:38:54;;;;;;;12.48;6.88;;;;;;;3.65;59.67;103159.34;4959457;28;119995;-68
2023/01/22 06:41:34;;;;;;;15.27;6.57;;;;;;;3.65;59.80;103159.34;4963654;28;121372;-68
2023/01/22 06:44:04;;;;;;;12.10;7.15;;;;;;;3.65;59.87;103167.19;4962147;28;123651;-68
2023/01/22 06:46:31;;;;;;;14.20;6.82;;;;;;;3.64;59.72;103170.69;4962916;28;122990;-68
2023/01/22 06:49:03;;;;;;;13.38;6.85;;;;;;;3.64;59.80;103165.44;4945060;28;119060;-68
2023/01/22 06:51:31;;;;;;;14.88;7.10;;;;;;;3.64;59.76;103170.69;4961676;28;118941;-68
2023/01/22 06:53:58;;;;;;;15.00;7.05;;;;;;;3.65;59.85;103177.69;4943870;28;123683;-68
2023/01/22 06:56:27;;;;;;;14.20;6.57;;;;;;;3.64;59.72;103175.94;4959965;28;122948;-68
2023/01/22 06:58:56;;;;;;;11.70;7.07;;;;;;;3.63;59.88;103171.53;4963695;28;118261;-68
2023/01/22 07:01:24;;;;;;;14.45;6.95;;;;;;;3.64;59.71;103178.56;4961604;28;118928;-69
2023/01/22 07:03:52;;;;;;;15.32;7.05;;;;;;;3.64;59.92;103175.94;4962723;28;124230;-68
2023/01/22 07:06:19;;;;;;;13.75;7.50;;;;;;;3.64;60.00;103170.69;4955047;28;124398;-68
2023/01/22 07:08:46;;;;;;;13.45;7.30;;;;;;;3.66;59.72;103179.47;4959879;28;119159;-68
2023/01/22 07:11:14;;;;;;;14.57;7.55;;;;;;;3.66;59.78;103189.94;4961955;28;118939;-68
2023/01/22 07:13:41;;;;;;;16.13;8.48;;;;;;;3.67;60.03;103180.34;4960581;28;124070;-68
2023/01/22 07:16:09;;;;;;;14.43;7.45;;;;;;;3.68;59.87;103179.50;4962583;28;123334;-68
2023/01/22 07:18:36;;;;;;;16.30;7.60;;;;;;;3.67;59.85;103186.50;4961389;28;120048;-68
2023/01/22 07:21:04;;;;;;;16.50;8.27;;;;;;;3.68;59.82;103183.00;4966176;28;119692;-68
2023/01/22 07:23:32;;;;;;;14.65;7.63;;;;;;;3.69;59.80;103184.78;4960663;28;125091;-68
2023/01/22 07:25:59;;;;;;;13.20;7.18;;;;;;;3.68;60.07;103188.25;4962300;28;123701;-68
2023/01/22 07:28:26;;;;;;;13.65;7.50;;;;;;;3.69;59.86;103191.75;4959944;28;120187;-68
2023/01/22 07:30:55;;;;;;;14.52;7.13;;;;;;;3.69;59.80;103197.88;4960212;28;118237;-68
2023/01/22 07:33:22;;;;;;;12.80;6.95;;;;;;;3.69;59.96;103187.41;4961335;28;123693;-68
2023/01/22 07:35:55;;;;;;;11.77;7.18;;;;;;;3.70;59.75;103191.78;4958415;28;123666;-68
2023/01/22 07:38:26;;;;;;;13.07;6.88;;;;;;;3.70;59.87;103194.41;4961535;28;119691;-69
2023/01/22 07:40:58;;;;;;;12.05;5.95;;;;;;;3.70;60.11;103186.53;4959863;28;119069;-68
2023/01/22 07:43:25;;;;;;;12.38;6.15;;;;;;;3.72;60.02;103188.31;4959160;28;124242;-68
2023/01/22 07:45:53;;;;;;;11.82;7.00;;;;;;;3.75;59.97;103198.84;4957988;28;123085;-68
2023/01/22 07:48:20;;;;;;;11.70;6.75;;;;;;;3.74;60.07;103197.09;4965181;28;119511;-68
2023/01/22 07:50:47;;;;;;;12.70;6.50;;;;;;;3.75;60.11;103193.59;4963619;28;118881;-68
2023/01/22 07:53:14;;;;;;;13.93;6.63;;;;;;;3.77;60.04;103191.91;4960736;28;123859;-68
2023/01/22 07:55:41;;;;;;;11.13;5.97;;;;;;;3.79;59.79;103195.47;4959990;28;123692;-68
2023/01/22 07:58:09;;;;;;;12.45;6.35;;;;;;;3.80;60.02;103191.97;4962247;28;120063;-68
2023/01/22 08:00:36;;;;;;;11.18;6.35;;;;;;;3.83;59.82;103197.31;4966038;28;119454;-68
2023/01/22 08:03:05;;;;;;;10.27;6.35;;;;;;;3.84;59.82;103206.91;4966071;28;125399;-68
2023/01/22 08:05:32;;;;;;;12.32;6.68;;;;;;;3.84;60.16;103199.03;4965219;28;124263;-68
2023/01/22 08:07:59;;;;;;;12.02;6.00;;;;;;;3.86;60.02;103202.59;4959034;28;120066;-68
2023/01/22 08:10:26;;;;;;;10.02;5.70;;;;;;;3.88;60.00;103211.38;4966798;28;118871;-68
2023/01/22 08:12:53;;;;;;;12.20;6.40;;;;;;;3.90;59.95;103215.81;4961705;28;124005;-68
2023/01/22 08:15:21;;;;;;;11.02;5.95;;;;;;;3.91;60.07;103216.69;4966508;28;124346;-68
2023/01/22 08:17:49;;;;;;;11.95;5.97;;;;;;;3.90;59.82;103222.78;4967719;28;120146;-68
2023/01/22 08:20:17;;;;;;;10.32;6.13;;;;;;;3.91;59.78;103216.69;4964664;28;120168;-68
2023/01/22 08:22:44;;;;;;;11.18;6.10;;;;;;;3.92;59.97;103223.72;4945020;28;124046;-68
2023/01/22 08:25:12;;;;;;;11.63;5.88;;;;;;;3.93;59.79;103222.84;4962941;28;123741;-68
2023/01/22 08:27:40;;;;;;;11.60;6.07;;;;;;;3.95;60.00;103226.38;4961350;28;119135;-68
2023/01/22 08:30:10;;;;;;;12.40;6.18;;;;;;;3.97;60.05;103222.03;4961727;28;118822;-68
2023/01/22 08:32:39;;;;;;;9.93;5.50;;;;;;;3.98;59.72;103212.47;4966662;28;123862;-68
2023/01/22 08:35:07;;;;;;;13.95;5.68;;;;;;;3.99;59.96;103225.56;4963591;28;124202;-68
2023/01/22 08:37:34;;;;;;;9.90;5.55;;;;;;;4.00;59.79;103211.63;4962388;28;119680;-68
2023/01/22 08:40:03;;;;;;;13.43;5.25;;;;;;;4.01;59.88;103223.91;4946990;28;118035;-67
2023/01/22 08:42:30;;;;;;;12.15;6.28;;;;;;;4.04;59.93;103223.06;4962983;28;124512;-67
2023/01/22 08:44:57;;;;;;;8.23;5.20;;;;;;;4.03;59.69;103216.94;4962852;28;121642;-68
2023/01/22 08:47:25;;;;;;;9.90;5.72;;;;;;;4.04;59.95;103218.69;4966209;28;119083;-68
2023/01/22 08:49:52;;;;;;;11.05;5.55;;;;;;;4.07;60.00;103218.78;4965666;28;118082;-68
2023/01/22 08:52:19;;;;;;;10.63;5.28;;;;;;;4.09;60.00;103217.06;4967510;28;124449;-67
2023/01/22 08:54:48;;;;;;;9.75;5.38;;;;;;;4.12;60.17;103220.59;4963569;28;124553;-68
2023/01/22 08:57:15;;;;;;;9.25;5.45;;;;;;;4.14;60.02;103221.50;4965240;28;120011;-68
2023/01/22 08:59:42;;;;;;;8.93;5.07;;;;;;;4.15;59.98;103220.69;4959303;28;117886;-67
2023/01/22 09:02:26;;;;;;;12.88;5.00;;;;;;;4.17;59.89;103218.97;4964696;28;125506;-68
2023/01/22 09:04:53;;;;;;;9.32;5.10;;;;;;;4.21;59.88;103226.03;4968868;28;124422;-66
2023/01/22 09:07:21;;;;;;;11.15;4.93;;;;;;;4.23;59.67;103224.31;4963057;28;121293;-67
2023/01/22 09:09:48;;;;;;;10.00;5.13;;;;;;;4.23;59.80;103230.44;4961676;28;119821;-68
2023/01/22 09:12:15;;;;;;;9.00;4.88;;;;;;;4.25;59.97;103230.47;4964588;28;124613;-68
2023/01/22 09:14:42;;;;;;;9.60;5.05;;;;;;;4.26;59.69;103233.16;4960849;28;125465;-67
2023/01/22 09:17:09;;;;;;;10.15;5.25;;;;;;;4.27;59.59;103226.16;4965111;28;119752;-67
2023/01/22 09:19:36;;;;;;;7.72;5.30;;;;;;;4.28;59.62;103227.94;4960469;28;120112;-68
2023/01/22 09:22:05;;;;;;;11.90;5.95;;;;;;;4.30;59.68;103231.47;4964443;28;124466;-68
2023/01/22 09:24:32;;;;;;;13.63;8.25;;;;;;;4.32;59.94;103227.13;4960310;28;122757;-67
2023/01/22 09:27:00;;;;;;;15.60;8.27;;;;;;;4.36;59.76;103231.56;4954699;28;118665;-67
2023/01/22 09:29:27;;;;;;;12.18;8.15;;;;;;;4.40;59.63;103216.78;4959761;28;118936;-68
2023/01/22 09:31:55;;;;;;;14.07;8.27;;;;;;;4.41;59.47;103221.19;4960298;28;124572;-68
2023/01/22 09:34:22;;;;;;;13.35;8.18;;;;;;;4.41;59.37;103224.69;4952068;28;123967;-68
2023/01/22 09:36:49;;;;;;;16.15;8.70;;;;;;;4.41;59.03;103219.44;4963682;28;119588;-68
2023/01/22 09:39:16;;;;;;;14.45;8.50;;;;;;;4.41;59.65;103224.69;4963322;28;119008;-68
2023/01/22 09:41:50;;;;;;;13.68;8.30;;;;;;;4.39;59.41;103221.16;4964284;28;124643;-68
2023/01/22 09:44:32;;;;;;;13.27;7.72;;;;;;;4.40;59.45;103229.91;4944760;28;123077;-68
2023/01/22 09:47:08;;;;;;;12.82;7.00;;;;;;;4.40;59.89;103228.16;4949874;28;119550;-68
2023/01/22 09:49:45;;;;;;;12.48;8.25;;;;;;;4.42;59.60;103231.69;4961524;28;118067;-68
2023/01/22 09:52:14;;;;;;;12.50;7.80;;;;;;;4.43;59.54;103233.47;4956442;28;124691;-68
2023/01/22 09:54:43;;;;;;;14.38;7.68;;;;;;;4.43;59.51;103238.72;4931689;28;123024;-68
2023/01/22 09:57:12;;;;;;;11.82;8.13;;;;;;;4.42;59.70;103236.94;4959273;28;120465;-67
2023/01/22 09:59:57;;;;;;;11.77;7.70;;;;;;;4.43;59.43;103238.72;4946531;28;119604;-67
2023/01/22 10:02:39;;;;;;;10.40;7.40;;;;;;;4.43;59.37;103236.09;4948885;28;123011;-68
2023/01/22 10:05:22;;;;;;;13.00;7.85;;;;;;;4.44;59.81;103245.72;4948893;28;123986;-68
2023/01/22 10:07:53;;;;;;;11.95;7.95;;;;;;;4.45;59.40;103237.00;4946390;28;119263;-68
2023/01/22 10:10:24;;;;;;;13.07;7.72;;;;;;;4.46;59.34;103248.38;4948361;28;119671;-68
2023/01/22 10:13:00;;;;;;;11.48;6.75;;;;;;;4.45;59.56;103247.50;4945617;28;122902;-67
2023/01/22 10:15:27;;;;;;;12.63;6.50;;;;;;;4.45;59.44;103242.25;4945748;28;125388;-68
2023/01/22 10:17:55;;;;;;;14.93;6.43;;;;;;;4.45;59.34;103250.13;4961983;28;119126;-68
2023/01/22 10:20:23;;;;;;;9.88;6.22;;;;;;;4.47;59.62;103245.78;4963835;28;120345;-67
2023/01/22 10:23:05;;;;;;;14.15;6.53;;;;;;;4.46;59.57;103249.28;4963386;28;123908;-68
2023/01/22 10:25:32;;;;;;;10.13;6.50;;;;;;;4.46;59.32;103244.03;4939519;28;124583;-70
2023/01/22 10:27:59;;;;;;;11.27;6.25;;;;;;;4.45;59.39;103250.13;4964211;28;119454;-68
2023/01/22 10:30:27;;;;;;;9.18;6.40;;;;;;;4.46;59.39;103254.53;4962121;28;122759;-68
2023/01/22 10:33:00;;;;;;;10.93;6.50;;;;;;;4.48;59.54;103252.81;4948775;28;123558;-70
2023/01/22 10:35:30;;;;;;;10.55;6.60;;;;;;;4.51;59.50;103248.47;4968129;28;122976;-71
2023/01/22 10:37:59;;;;;;;9.45;5.93;;;;;;;4.52;59.40;103247.59;4963553;28;118757;-71
2023/01/22 10:40:36;;;;;;;10.35;6.28;;;;;;;4.53;59.41;103238.91;4951638;28;119624;-71
2023/01/22 10:43:14;;;;;;;12.30;6.32;;;;;;;4.55;59.68;103242.44;4955628;28;124408;-70
2023/01/22 10:45:58;;;;;;;10.55;5.90;;;;;;;4.56;59.59;103238.94;4963801;28;125103;-70
2023/01/22 10:48:26;;;;;;;11.93;6.20;;;;;;;4.61;59.49;103242.53;4956854;28;121064;-68
2023/01/22 10:51:01;;;;;;;11.00;6.30;;;;;;;4.62;59.41;103239.06;4966999;28;119990;-68
2023/01/22 10:53:34;;;;;;;9.77;5.78;;;;;;;4.63;59.48;103232.94;4966011;28;124238;-67
2023/01/22 10:56:05;;;;;;;11.80;6.63;;;;;;;4.65;59.45;103240.00;4960855;28;126190;-68
2023/01/22 10:58:36;;;;;;;9.80;6.03;;;;;;;4.68;59.46;103234.78;4946077;28;118732;-69
2023/01/22 11:01:22;;;;;;;11.88;6.40;;;;;;;4.71;59.35;103223.50;4958089;28;119343;-68
2023/01/22 11:03:49;;;;;;;8.32;5.38;;;;;;;4.74;59.59;103228.78;4917769;28;125745;-68
2023/01/22 11:06:46;;;;;;;10.60;5.93;;;;;;;4.73;59.31;103232.28;4946276;28;123765;-69
2023/01/22 11:09:16;;;;;;;;;;;;;;;4.72;59.26;103225.25;4946215;28;119846;-68
2023/01/22 11:11:55;;;;;;;9.43;5.28;;;;;;;4.74;59.62;103223.53;4949521;28;119203;-68
2023/01/22 11:14:28;;;;;;;8.82;5.75;;;;;;;4.77;59.35;103222.72;4945803;28;124151;-69
2023/01/22 11:17:02;;;;;;;9.70;5.28;;;;;;;4.78;59.46;103220.09;4945631;28;123958;-69
2023/01/22 11:19:38;;;;;;;9.95;5.72;;;;;;;4.81;59.40;103209.66;4954653;28;120395;-69
2023/01/22 11:22:17;;;;;;;9.00;5.55;;;;;;;4.84;59.41;103214.06;4950153;28;118243;-69
2023/01/22 11:24:47;;;;;;;8.88;5.53;;;;;;;4.85;59.35;103216.72;4949686;28;123669;-69
2023/01/22 11:27:45;;;;;;;9.85;6.03;;;;;;;4.87;59.62;103215.00;4950559;28;122902;-69
2023/01/22 11:30:43;;;;;;;10.40;5.55;;;;;;;4.90;59.32;103208.03;4949045;28;119299;-69
2023/01/22 11:33:52;;;;;;;9.65;6.15;;;;;;;4.92;59.62;103216.84;4939036;28;118419;-69
2023/01/22 11:36:31;;;;;;;9.45;5.50;;;;;;;4.93;59.20;103218.59;4956587;28;124100;-68
2023/01/22 11:39:18;;;;;;;9.45;5.95;;;;;;;4.93;59.16;103218.59;4956151;28;123844;-68
2023/01/22 11:42:04;;;;;;;9.07;5.78;;;;;;;4.90;59.13;103210.66;4963910;28;122022;-68